Aérodrome :
LOGIN :

S'inscrire | Disclaimer

   EN    FR    IT 

 










Légende :    VFR   VFR Marginal   IFR   IFR Intensif   IFR Très Intensif
Visi : 
Plafond : 
>= 8 km
>= 3000ft
5 à 8 km
1000 à 3000 ft
1500m à 5 km
500 à 1000 ft
800 à 1500m
200 à 500 ft
< 800m
< 200 ft
Symboles :   Orages  Brouillard  Fortes neiges  Fortes précipitations  Vent > 20 kt
SIGMETs :   Divers  Orages  Givrage  Turbulence  Onde Orograph.  Cendres Volcan.







- Altitude de l'aérodrome : 375 ft
- Code IATA : MST


EHBK - Maastricht Aachen

DERNIER METAR :
  • 280955Z AUTO 21011KT 180V270 9999 -RA FEW007 BKN010 BKN013 SCT015CB 19/18 Q0997 TEMPO 6000 -SHRA SCT015CB

METARs EXPIRÉS :
  • 280925Z AUTO 18007KT 160V220 6000 SHRA SCT012 BKN015CB BKN019 19/18 Q0997 RERA BECMG 6000 -SHRA SCT020CB
  • 280855Z AUTO 18006KT 150V210 9999 SCT015 SCT019 OVC024 20/18 Q0997 TEMPO 4000 SHRA SCT020CB
  • 280825Z AUTO 19009KT 160V220 9999 SCT016 OVC028 20/18 Q0997 NOSIG
  • 280755Z AUTO 18007KT 150V210 9999 SCT017 BKN020 OVC024 20/18 Q0997 NOSIG
  • 280725Z AUTO 18008KT 150V210 9999 FEW018 SCT026 20/18 Q0997 NOSIG

TAF TAF EHBK
Valide du 28 à 06h jusqu'au 29 à 12h UTC


280501Z 2806/2912 20007KT CAVOK
TEMPO 2806/2814 6000 SHRA SCT020CB SCT020CB
PROB30
TEMPO 2806/2814 4000 TSRA BKN012 BKN015CB
PROB30
TEMPO 2814/2820 6000 SHRA
PROB40
TEMPO 2904/2912 5000 RA BKN012
BECMG 2909/2912 23010KT
Pas de NOTAMs connus pour ce terrain.



MET'MAP, la Météo Aéronautique d'un coup d'oeil ! - Copyright ORBIFLY Décembre 2007 - Disclaimer

ORBIFLY MET'MAP TEAM :

Programmation & Développement : Alexandra Zaïnal
Conception & Développement : Baudouin d'Aumeries
Co-Programmation & Développement : Marc-Olivier Méhu
Soutien technique & logistique : Manuel Goepfert

Contact : metmap@orbifly.com




SOURCES & CREDITS :

   NOAA